Nonthaburi, Thailand
Current Conditions -  °F | °C
As of 8:00 AM on Tuesday 27 Jan 2015 (Local Time) from VTBD Reporting Station
Haze Haze  
Wind Chill: 75°   Ceiling: 30000
Heat Index: 75°   Visibility: 1.2mi
Dew Point: 72°   Wind: 5mph
Humidity: 89%   Direction: 50°NE
Pressure: 29.94"   Gusts: NA
Location:  13.84°N, 100.52°E
Report Text: VTBD 270100Z 05004KT 2000 BR FEW008 BKN300 24/22 Q1014 BECMG TL0200 3000 BR
Loading
Personal Weather Stations






























Interactive Weather Map New forecast layout! Learn more

10-Day Weather Forecast

Advertisements
Track Severe Weather on mobile